Lydbrook, United Kingdom
Current Conditions -  °F | °C
As of 1:20 PM on Thursday 23 Oct 2014 (Local Time) from EGBJ Reporting Station
Broken Clouds Broken Clouds  
Wind Chill: 15°   Ceiling: 1400
Heat Index: 15°   Visibility: 6mi
Dew Point: 13°   Wind: 10mph
Humidity: 88%   Direction: 210°SSW
Pressure: 30.03"   Gusts: NA
Location:  51.84°N, 2.58°W
Report Text: EGBJ 231220Z 21009KT 180V250 9999 FEW012 BKN014 15/13 Q1017
Loading
Personal Weather Stations






























Interactive Weather Map
Tropical Storm Tracking
New forecast layout! Learn more

10-Day Weather Forecast

Advertisements
Track Severe Weather on mobile